createdAt,value
2018-04-30T00:00:58.191Z,99408
2018-04-30T00:03:26.397Z,99414
2018-04-30T00:05:55.394Z,99411
2018-04-30T00:11:05.462Z,99401
2018-04-30T00:13:33.637Z,99392
2018-04-30T00:16:01.910Z,99390
2018-04-30T00:18:30.193Z,99392
2018-04-30T00:20:58.361Z,99393
2018-04-30T00:23:32.682Z,99385
2018-04-30T00:26:30.740Z,99393
2018-04-30T00:28:58.962Z,99387
2018-04-30T00:31:27.137Z,99384
2018-04-30T00:33:55.376Z,99389
2018-04-30T00:36:30.513Z,99378
2018-04-30T00:38:59.453Z,99381
2018-04-30T00:41:27.747Z,99373
2018-04-30T00:43:55.940Z,99366
2018-04-30T00:46:24.187Z,99363
2018-04-30T00:48:52.402Z,99365
2018-04-30T00:51:30.562Z,99354
2018-04-30T00:53:59.912Z,99350
2018-04-30T00:56:28.194Z,99350
2018-04-30T00:58:56.471Z,99340
2018-04-30T01:01:24.699Z,99339
2018-04-30T01:03:52.917Z,99334
2018-04-30T01:06:21.089Z,99323
2018-04-30T01:08:50.902Z,99323
2018-04-30T01:11:19.170Z,99318
2018-04-30T01:13:47.450Z,99317
2018-04-30T01:16:15.635Z,99305
2018-04-30T01:18:44.634Z,99306
2018-04-30T01:21:13.651Z,99299
2018-04-30T01:23:41.833Z,99310
2018-04-30T01:26:10.058Z,99299
2018-04-30T01:28:38.333Z,99298
2018-04-30T01:31:06.554Z,99299
2018-04-30T01:33:34.793Z,99310
2018-04-30T01:36:03.765Z,99296
2018-04-30T01:38:33.478Z,99296
2018-04-30T01:41:01.767Z,99297
2018-04-30T01:43:30.664Z,99295
2018-04-30T01:46:29.691Z,99290
2018-04-30T01:51:59.478Z,99284
2018-04-30T01:54:27.658Z,99282
2018-04-30T01:56:55.876Z,99288
2018-04-30T01:59:24.455Z,99283
2018-04-30T02:01:52.747Z,99277
2018-04-30T02:04:20.938Z,99277
2018-04-30T02:06:49.163Z,99269
2018-04-30T02:09:17.410Z,99269
2018-04-30T02:11:45.687Z,99273
2018-04-30T02:14:30.551Z,99264
2018-04-30T02:16:58.717Z,99251
2018-04-30T02:19:33.512Z,99256
2018-04-30T02:22:01.831Z,99248
2018-04-30T02:24:30.097Z,99243
2018-04-30T02:26:58.278Z,99242
2018-04-30T02:29:26.499Z,99237
2018-04-30T02:34:56.381Z,99233
2018-04-30T02:37:31.111Z,99230
2018-04-30T02:39:59.407Z,99225
2018-04-30T02:42:31.726Z,99214
2018-04-30T02:45:30.487Z,99213
2018-04-30T02:48:29.260Z,99203
2018-04-30T02:53:59.297Z,99199
2018-04-30T02:56:31.155Z,99196
2018-04-30T02:59:00.131Z,99190
2018-04-30T03:01:31.489Z,99189
2018-04-30T03:04:00.463Z,99189
2018-04-30T03:06:32.113Z,99176
2018-04-30T03:09:00.327Z,99174
2018-04-30T03:11:32.471Z,99172
2018-04-30T03:14:31.011Z,99170
2018-04-30T03:16:59.185Z,99168
2018-04-30T03:19:27.389Z,99166
2018-04-30T03:21:55.639Z,99159
2018-04-30T03:24:31.388Z,99167
2018-04-30T03:26:59.698Z,99161
2018-04-30T03:29:27.973Z,99169
2018-04-30T03:31:56.451Z,99161
2018-04-30T03:34:24.666Z,99160
2018-04-30T03:36:52.897Z,99154
2018-04-30T03:39:31.313Z,99158
2018-04-30T03:42:29.915Z,99151
2018-04-30T03:44:58.903Z,99161
2018-04-30T03:47:27.986Z,99157
2018-04-30T03:49:56.212Z,99157
2018-04-30T03:52:31.456Z,99147
2018-04-30T03:54:59.765Z,99150
2018-04-30T03:57:28.118Z,99152
2018-04-30T03:59:56.306Z,99157
2018-04-30T04:02:42.314Z,99151
2018-04-30T04:18:48.967Z,99147
2018-04-30T04:21:30.785Z,99147
2018-04-30T04:24:29.850Z,99148
2018-04-30T04:26:58.026Z,99154
2018-04-30T04:29:26.232Z,99149
2018-04-30T04:31:55.177Z,99147
2018-04-30T04:34:23.416Z,99148
2018-04-30T04:36:52.373Z,99151
2018-04-30T04:39:20.550Z,99151
2018-04-30T04:41:48.818Z,99147
2018-04-30T04:44:17.002Z,99146
2018-04-30T04:46:45.254Z,99144
2018-04-30T04:49:32.699Z,99144
2018-04-30T04:52:30.917Z,99141
2018-04-30T04:54:59.187Z,99133
2018-04-30T04:57:27.376Z,99138
2018-04-30T04:59:55.614Z,99138
2018-04-30T05:02:24.580Z,99127
2018-04-30T05:04:52.773Z,99130
2018-04-30T05:07:21.049Z,99123
2018-04-30T05:09:49.239Z,99123
2018-04-30T05:12:18.221Z,99130
2018-04-30T05:14:47.233Z,99118
2018-04-30T05:17:16.256Z,99120
2018-04-30T05:19:44.470Z,99120
2018-04-30T05:22:12.747Z,99118
2018-04-30T05:24:40.921Z,99120
2018-04-30T05:27:09.194Z,99115
2018-04-30T05:29:37.411Z,99113
2018-04-30T05:32:05.597Z,99110
2018-04-30T05:34:33.813Z,99110
2018-04-30T05:37:02.769Z,99110
2018-04-30T05:39:30.964Z,99097
2018-04-30T05:41:59.208Z,99105
2018-04-30T05:44:33.231Z,99100
2018-04-30T05:47:01.452Z,99100
2018-04-30T05:49:30.435Z,99097
2018-04-30T05:51:58.610Z,99092
2018-04-30T05:54:27.614Z,99095
2018-04-30T05:56:56.656Z,99092
2018-04-30T05:59:31.313Z,99093
2018-04-30T06:01:59.490Z,99099
2018-04-30T06:04:27.698Z,99096
2018-04-30T06:06:56.804Z,99093
2018-04-30T06:09:25.723Z,99094
2018-04-30T06:11:54.022Z,99090
2018-04-30T06:14:22.206Z,99087
2018-04-30T06:16:51.752Z,99084
2018-04-30T06:19:19.973Z,99095
2018-04-30T06:21:48.262Z,99085
2018-04-30T06:24:16.544Z,99091
2018-04-30T06:29:45.472Z,99080
2018-04-30T06:32:14.538Z,99075
2018-04-30T06:34:42.809Z,99074
2018-04-30T06:37:11.315Z,99083
2018-04-30T06:39:40.380Z,99080
2018-04-30T06:42:08.567Z,99092
2018-04-30T06:44:37.657Z,99094
2018-04-30T06:47:05.936Z,99087
2018-04-30T06:49:35.046Z,99086
2018-04-30T06:52:04.040Z,99083
2018-04-30T06:54:33.013Z,99084
2018-04-30T06:59:42.057Z,99089
2018-04-30T07:02:10.335Z,99080
2018-04-30T07:04:38.608Z,99086
2018-04-30T07:07:06.887Z,99085
2018-04-30T07:09:35.145Z,99084
2018-04-30T07:12:03.341Z,99086
2018-04-30T07:14:33.144Z,99084
2018-04-30T07:17:01.322Z,99075
2018-04-30T07:19:29.498Z,99081
2018-04-30T07:21:57.746Z,99076
2018-04-30T07:24:25.923Z,99066
2018-04-30T07:26:54.111Z,99062
2018-04-30T07:29:23.098Z,99067
2018-04-30T07:31:51.493Z,99051
2018-04-30T07:34:19.699Z,99048
2018-04-30T07:36:47.944Z,99037
2018-04-30T07:39:30.499Z,99047
2018-04-30T07:41:58.722Z,99039
2018-04-30T07:44:27.061Z,99042
2018-04-30T07:46:55.377Z,99037
2018-04-30T07:49:23.660Z,99049
2018-04-30T07:51:52.610Z,99041
2018-04-30T07:54:20.917Z,99037
2018-04-30T07:56:49.913Z,99041
2018-04-30T07:59:18.265Z,99034
2018-04-30T08:01:46.573Z,99038
2018-04-30T08:04:30.777Z,99034
2018-04-30T08:06:59.083Z,99032
2018-04-30T08:09:27.369Z,99020
2018-04-30T08:11:55.541Z,99018
2018-04-30T08:14:23.777Z,99024
2018-04-30T08:16:52.014Z,99016
2018-04-30T08:19:33.661Z,99021
2018-04-30T08:22:29.631Z,99010
2018-04-30T08:24:58.617Z,99017
2018-04-30T08:27:27.558Z,98997
2018-04-30T08:29:55.734Z,99005
2018-04-30T08:32:31.128Z,99001
2018-04-30T08:35:00.071Z,99010
2018-04-30T08:37:28.277Z,99011
2018-04-30T08:39:56.542Z,99011
2018-04-30T08:42:24.714Z,99007
2018-04-30T08:44:52.885Z,99010
2018-04-30T08:47:21.108Z,99010
2018-04-30T08:49:49.428Z,99011
2018-04-30T08:52:17.610Z,99014
2018-04-30T08:54:45.889Z,99009
2018-04-30T08:57:14.749Z,98996
2018-04-30T08:59:42.925Z,99006
2018-04-30T09:02:11.264Z,98998
2018-04-30T09:04:40.228Z,98998
2018-04-30T09:07:08.398Z,98992
2018-04-30T09:09:36.613Z,99001
2018-04-30T09:12:04.913Z,99001
2018-04-30T09:17:42.070Z,98998
2018-04-30T09:20:11.060Z,99003
2018-04-30T09:22:39.997Z,98999
2018-04-30T09:25:08.227Z,98998
2018-04-30T09:27:37.169Z,99005
2018-04-30T09:30:05.391Z,99010
2018-04-30T09:32:34.363Z,98992
2018-04-30T09:35:02.724Z,99007
2018-04-30T09:37:30.954Z,98987
2018-04-30T09:39:59.925Z,98994
2018-04-30T09:45:29.433Z,98995
2018-04-30T09:47:57.610Z,98998
2018-04-30T09:50:25.786Z,98991
2018-04-30T09:52:54.058Z,98996
2018-04-30T09:55:22.335Z,98990
2018-04-30T09:57:50.669Z,99000
2018-04-30T10:00:19.642Z,99002
2018-04-30T10:02:47.853Z,98994
2018-04-30T10:05:16.071Z,99000
2018-04-30T10:07:45.164Z,99000
2018-04-30T10:10:30.900Z,99010
2018-04-30T10:12:59.228Z,98992
2018-04-30T10:15:28.174Z,98994
2018-04-30T10:17:56.363Z,99013
2018-04-30T10:20:24.565Z,99008
2018-04-30T10:22:53.513Z,99011
2018-04-30T10:25:21.694Z,99007
2018-04-30T10:30:50.567Z,99002
2018-04-30T10:33:18.747Z,99015
2018-04-30T10:35:47.001Z,99016
2018-04-30T10:38:32.650Z,99000
2018-04-30T10:41:00.826Z,99007
2018-04-30T10:43:30.515Z,99007
2018-04-30T10:45:58.744Z,99009
2018-04-30T10:48:26.999Z,99011
2018-04-30T10:50:55.359Z,99012
2018-04-30T10:53:23.650Z,99020
2018-04-30T10:58:55.453Z,99008
2018-04-30T11:01:24.414Z,99015
2018-04-30T11:03:52.685Z,99028
2018-04-30T11:06:31.477Z,99020
2018-04-30T11:08:59.653Z,99023
2018-04-30T11:11:27.830Z,99020
2018-04-30T11:13:56.816Z,99019
2018-04-30T11:16:25.047Z,99023
2018-04-30T11:18:54.127Z,99027
2018-04-30T11:21:32.139Z,99020
2018-04-30T11:24:01.110Z,99026
2018-04-30T11:26:29.402Z,99026
2018-04-30T11:28:57.614Z,99018
2018-04-30T11:31:25.860Z,99016
2018-04-30T11:36:55.582Z,99021
2018-04-30T11:39:24.537Z,99035
2018-04-30T11:41:52.743Z,99030
2018-04-30T11:44:21.824Z,99032
2018-04-30T11:46:50.100Z,99028
2018-04-30T11:49:31.560Z,99020
2018-04-30T11:51:59.877Z,99022
2018-04-30T11:54:28.846Z,99019
2018-04-30T11:56:57.148Z,99029
2018-04-30T11:59:26.113Z,99035
2018-04-30T12:07:52.706Z,99042
2018-04-30T12:10:20.886Z,99039
2018-04-30T12:12:49.154Z,99043
2018-04-30T12:15:17.387Z,99042
2018-04-30T12:17:45.620Z,99039
2018-04-30T12:20:14.587Z,99042
2018-04-30T12:22:42.878Z,99041
2018-04-30T12:25:11.064Z,99049
2018-04-30T12:27:39.313Z,99040
2018-04-30T12:30:31.561Z,99042
2018-04-30T12:33:30.091Z,99042
2018-04-30T12:35:58.347Z,99035
2018-04-30T12:38:27.298Z,99035
2018-04-30T12:40:55.555Z,99025
2018-04-30T12:43:23.772Z,99033
2018-04-30T12:45:52.734Z,99050
2018-04-30T12:48:33.742Z,99059
2018-04-30T12:51:02.696Z,99063
2018-04-30T12:53:31.082Z,99081
2018-04-30T12:55:59.449Z,99078
2018-04-30T12:58:31.546Z,99077
2018-04-30T13:01:30.883Z,99080
2018-04-30T13:03:59.074Z,99091
2018-04-30T13:06:27.297Z,99086
2018-04-30T13:08:56.381Z,99077
2018-04-30T13:11:34.193Z,99083
2018-04-30T13:14:03.297Z,99086
2018-04-30T13:16:32.258Z,99082
2018-04-30T13:19:00.454Z,99084
2018-04-30T13:21:29.426Z,99080
2018-04-30T13:23:57.682Z,99086
2018-04-30T13:26:32.333Z,99079
2018-04-30T13:29:31.233Z,99071
2018-04-30T13:32:29.970Z,99074
2018-04-30T13:34:58.160Z,99072
2018-04-30T13:37:26.338Z,99074
2018-04-30T13:42:55.594Z,99107
2018-04-30T13:45:23.873Z,99109
2018-04-30T13:47:52.054Z,99124
2018-04-30T13:50:21.074Z,99123
2018-04-30T13:55:50.354Z,99126
2018-04-30T13:58:18.640Z,99126
2018-04-30T14:00:46.910Z,99131
2018-04-30T14:03:15.190Z,99132
2018-04-30T14:05:43.372Z,99129
2018-04-30T14:08:31.889Z,99145
2018-04-30T14:11:00.067Z,99130
2018-04-30T14:13:28.261Z,99133
2018-04-30T14:15:56.657Z,99141
2018-04-30T14:18:24.791Z,99133
2018-04-30T14:26:54.155Z,99148
2018-04-30T14:29:22.413Z,99162
2018-04-30T14:31:50.713Z,99162
2018-04-30T14:34:19.785Z,99174
2018-04-30T14:36:48.082Z,99177
2018-04-30T14:39:31.300Z,99171
2018-04-30T14:41:59.476Z,99177
2018-04-30T14:44:27.679Z,99176
2018-04-30T14:46:55.920Z,99191
2018-04-30T14:49:31.521Z,99200
2018-04-30T14:51:59.832Z,99223
2018-04-30T14:54:28.122Z,99220
2018-04-30T14:56:56.396Z,99211
2018-04-30T14:59:26.108Z,99219
2018-04-30T15:01:54.278Z,99239
2018-04-30T15:04:32.898Z,99241
2018-04-30T15:07:01.082Z,99255
2018-04-30T15:09:30.207Z,99260
2018-04-30T15:11:58.444Z,99263
2018-04-30T15:14:26.631Z,99265
2018-04-30T15:16:55.746Z,99266
2018-04-30T15:19:24.038Z,99269
2018-04-30T15:21:52.260Z,99278
2018-04-30T15:24:20.530Z,99288
2018-04-30T15:26:48.773Z,99283
2018-04-30T15:29:17.050Z,99278
2018-04-30T15:31:45.269Z,99274
2018-04-30T15:34:14.402Z,99276
2018-04-30T15:36:42.597Z,99293
2018-04-30T15:39:10.814Z,99284
2018-04-30T15:41:39.790Z,99284
2018-04-30T15:44:08.080Z,99306
2018-04-30T15:46:36.254Z,99319
2018-04-30T15:49:31.190Z,99314
2018-04-30T15:51:59.422Z,99313
2018-04-30T15:54:27.694Z,99316
2018-04-30T15:56:56.073Z,99319
2018-04-30T15:59:31.709Z,99347
2018-04-30T16:02:00.917Z,99330
2018-04-30T16:04:29.188Z,99318
2018-04-30T16:06:57.479Z,99327
2018-04-30T16:09:25.742Z,99314
2018-04-30T16:11:53.959Z,99310
2018-04-30T16:14:32.950Z,99319
2018-04-30T16:17:01.241Z,99311
2018-04-30T16:19:30.178Z,99298
2018-04-30T16:21:58.381Z,99304
2018-04-30T16:24:26.710Z,99312
2018-04-30T16:26:54.908Z,99320
2018-04-30T16:29:23.131Z,99315
2018-04-30T16:31:51.389Z,99312
2018-04-30T16:34:32.836Z,99319
2018-04-30T16:37:01.051Z,99319
2018-04-30T16:39:29.294Z,99327
2018-04-30T16:41:58.256Z,99330
2018-04-30T16:44:26.497Z,99322
2018-04-30T16:46:54.683Z,99331
2018-04-30T16:49:31.867Z,99329
2018-04-30T16:52:00.810Z,99333
2018-04-30T16:54:28.999Z,99341
2018-04-30T16:56:57.327Z,99341
2018-04-30T16:59:32.119Z,99355
2018-04-30T17:02:00.402Z,99354
2018-04-30T17:04:28.640Z,99366
2018-04-30T17:06:56.876Z,99371
2018-04-30T17:09:32.378Z,99363
2018-04-30T17:12:00.562Z,99371
2018-04-30T17:14:28.747Z,99380
2018-04-30T17:16:57.122Z,99386
2018-04-30T17:19:25.308Z,99388
2018-04-30T17:21:54.260Z,99390
2018-04-30T17:24:22.465Z,99382
2018-04-30T17:29:53.106Z,99397
2018-04-30T17:32:31.842Z,99392
2018-04-30T17:35:00.839Z,99398
2018-04-30T17:37:32.786Z,99392
2018-04-30T17:40:01.059Z,99407
2018-04-30T17:42:29.206Z,99411
2018-04-30T17:44:58.145Z,99423
2018-04-30T17:47:27.129Z,99421
2018-04-30T17:49:55.391Z,99429
2018-04-30T17:52:23.572Z,99430
2018-04-30T17:57:52.414Z,99445
2018-04-30T18:00:20.654Z,99430
2018-04-30T18:02:48.934Z,99450
2018-04-30T18:05:31.607Z,99450
2018-04-30T18:07:59.799Z,99453
2018-04-30T18:10:27.970Z,99456
2018-04-30T18:12:56.183Z,99458
2018-04-30T18:15:25.221Z,99468
2018-04-30T18:17:53.397Z,99460
2018-04-30T18:20:34.102Z,99469
2018-04-30T18:23:30.029Z,99469
2018-04-30T18:28:58.318Z,99486
2018-04-30T18:31:26.556Z,99498
2018-04-30T18:36:54.981Z,99499
2018-04-30T18:39:23.333Z,99503
2018-04-30T18:41:51.524Z,99512
2018-04-30T18:44:19.779Z,99510
2018-04-30T18:46:47.961Z,99525
2018-04-30T18:49:16.230Z,99524
2018-04-30T18:54:45.395Z,99531
2018-04-30T18:57:14.370Z,99533
2018-04-30T18:59:42.754Z,99535
2018-04-30T19:02:31.448Z,99544
2018-04-30T19:04:59.631Z,99548
2018-04-30T19:07:27.860Z,99542
2018-04-30T19:09:56.088Z,99540
2018-04-30T19:12:24.668Z,99545
2018-04-30T19:14:52.861Z,99541
2018-04-30T19:17:21.078Z,99538
2018-04-30T19:22:50.369Z,99543
2018-04-30T19:25:18.658Z,99540
2018-04-30T19:27:46.839Z,99544
2018-04-30T19:30:31.842Z,99549
2018-04-30T19:33:00.035Z,99565
2018-04-30T19:35:28.251Z,99561
2018-04-30T19:37:56.493Z,99565
2018-04-30T19:40:24.682Z,99566
2018-04-30T19:45:54.348Z,99573
2018-04-30T19:48:22.566Z,99567
2018-04-30T19:50:50.765Z,99565
2018-04-30T19:53:19.021Z,99572
2018-04-30T19:55:47.207Z,99575
2018-04-30T19:58:32.701Z,99577
2018-04-30T20:01:01.576Z,99583
2018-04-30T20:03:29.768Z,99582
2018-04-30T20:05:59.589Z,99591
2018-04-30T20:08:27.874Z,99596
2018-04-30T20:10:56.850Z,99610
2018-04-30T20:13:25.079Z,99614
2018-04-30T20:15:53.406Z,99614
2018-04-30T20:18:21.670Z,99625
2018-04-30T20:20:49.950Z,99622
2018-04-30T20:23:18.201Z,99626
2018-04-30T20:25:46.389Z,99629
2018-04-30T20:28:15.391Z,99639
2018-04-30T20:30:44.356Z,99644
2018-04-30T20:33:12.609Z,99647
2018-04-30T20:35:40.814Z,99649
2018-04-30T20:38:08.989Z,99648
2018-04-30T20:40:37.688Z,99649
2018-04-30T20:43:31.846Z,99640
2018-04-30T20:46:00.020Z,99646
2018-04-30T20:48:32.635Z,99644
2018-04-30T20:51:00.866Z,99643
2018-04-30T20:53:30.392Z,99651
2018-04-30T20:55:58.566Z,99653
2018-04-30T20:58:33.472Z,99659
2018-04-30T21:01:01.696Z,99666
2018-04-30T21:03:30.673Z,99663
2018-04-30T21:05:58.960Z,99661
2018-04-30T21:08:45.736Z,99665
2018-04-30T21:11:13.931Z,99655
2018-04-30T21:13:43.649Z,99654
2018-04-30T21:16:11.861Z,99652
2018-04-30T21:18:40.098Z,99657
2018-04-30T21:21:32.338Z,99661
2018-04-30T21:24:00.518Z,99670
2018-04-30T21:26:29.561Z,99674
2018-04-30T21:28:57.873Z,99676
2018-04-30T21:31:27.587Z,99673
2018-04-30T21:33:55.772Z,99692
2018-04-30T21:36:24.758Z,99697
2018-04-30T21:38:52.944Z,99696
2018-04-30T21:41:21.887Z,99703
2018-04-30T21:43:50.365Z,99707
2018-04-30T21:46:18.530Z,99704
2018-04-30T21:48:46.723Z,99703
2018-04-30T21:51:14.958Z,99697
2018-04-30T21:56:43.614Z,99702
2018-04-30T21:59:11.799Z,99696
2018-04-30T22:01:40.135Z,99706
2018-04-30T22:04:08.448Z,99698
2018-04-30T22:06:36.729Z,99695
2018-04-30T22:09:05.709Z,99690
2018-04-30T22:11:34.815Z,99686
2018-04-30T22:14:02.991Z,99698
2018-04-30T22:16:31.939Z,99705
2018-04-30T22:19:30.870Z,99706
2018-04-30T22:21:59.141Z,99704
2018-04-30T22:24:28.863Z,99704
2018-04-30T22:26:57.130Z,99708
2018-04-30T22:29:25.405Z,99729
2018-04-30T22:31:53.677Z,99726
2018-04-30T22:34:22.348Z,99733
2018-04-30T22:36:50.583Z,99736
2018-04-30T22:39:19.638Z,99747
2018-04-30T22:41:47.820Z,99746
2018-04-30T22:44:31.546Z,99742
2018-04-30T22:46:59.736Z,99752
2018-04-30T22:49:28.720Z,99750
2018-04-30T22:51:56.970Z,99743
2018-04-30T22:54:25.147Z,99746
2018-04-30T22:56:53.326Z,99742
2018-04-30T22:59:21.618Z,99743
2018-04-30T23:01:49.872Z,99741
2018-04-30T23:04:31.829Z,99734
2018-04-30T23:07:00.049Z,99736
2018-04-30T23:09:28.334Z,99733
2018-04-30T23:11:56.548Z,99723
2018-04-30T23:14:24.778Z,99732
2018-04-30T23:16:53.015Z,99724
2018-04-30T23:19:21.190Z,99719
2018-04-30T23:21:49.402Z,99708
2018-04-30T23:24:17.683Z,99714
2018-04-30T23:26:45.851Z,99718
2018-04-30T23:29:31.218Z,99714
2018-04-30T23:34:59.721Z,99705
2018-04-30T23:37:29.463Z,99703
2018-04-30T23:42:55.885Z,99728
2018-04-30T23:45:24.882Z,99723
2018-04-30T23:47:54.662Z,99726
2018-04-30T23:50:22.897Z,99719
2018-04-30T23:52:51.867Z,99719
2018-04-30T23:55:20.812Z,99718
2018-04-30T23:57:49.022Z,99724
